Time;durP1;ratioP1;P1;durP2;ratioP2;P2;SDS_P1;SDS_P2;PMS_P1;PMS_P2;Temp;Humidity;BMP_temperature;BMP_pressure;BME280_temperature;BME280_humidity;BME280_pressure;Samples;Min_cycle;Max_cycle;Signal;HPM_P1;HPM_P2
2023/01/21 00:01:11;;;;;;;;;10.50;7.25;;;;;-146.44;100.00;58906.56;5064566;27;45661;-61
2023/01/21 00:03:36;;;;;;;;;7.00;7.00;;;;;-146.44;100.00;58906.56;5074430;28;45657;-61
2023/01/21 00:06:02;;;;;;;;;8.25;7.50;;;;;-146.44;100.00;58906.56;5075279;27;45484;-58
2023/01/21 00:08:28;;;;;;;;;7.00;7.00;;;;;-146.44;100.00;58906.56;5074761;27;45504;-59
2023/01/21 00:10:53;;;;;;;;;5.00;5.00;;;;;-146.44;100.00;58906.56;5074818;27;45519;-58
2023/01/21 00:13:18;;;;;;;;;10.50;9.00;;;;;-146.44;100.00;58906.56;5072387;27;45541;-60
2023/01/21 00:15:44;;;;;;;;;9.25;7.00;;;;;-146.44;100.00;58906.56;5074475;27;47181;-59
2023/01/21 00:18:09;;;;;;;;;11.00;8.50;;;;;-146.44;100.00;58906.56;5075191;27;45407;-59
2023/01/21 00:20:34;;;;;;;;;7.25;7.25;;;;;-146.44;100.00;58906.56;5075482;27;45629;-57
2023/01/21 00:23:00;;;;;;;;;8.50;7.25;;;;;-146.44;100.00;58906.56;5075636;27;45399;-60
2023/01/21 00:25:25;;;;;;;;;6.25;6.25;;;;;-146.44;100.00;58906.56;5075403;27;46045;-59
2023/01/21 00:27:50;;;;;;;;;6.00;6.00;;;;;-146.44;100.00;58906.56;5075519;27;45627;-61
2023/01/21 00:30:16;;;;;;;;;9.25;6.75;;;;;-146.44;100.00;58906.56;5075719;27;45588;-61
2023/01/21 00:32:41;;;;;;;;;8.75;7.00;;;;;-146.44;100.00;58906.56;5075641;27;46133;-58
2023/01/21 00:35:07;;;;;;;;;5.50;5.50;;;;;-146.44;100.00;58906.56;5075145;27;46568;-58
2023/01/21 00:37:33;;;;;;;;;7.00;7.00;;;;;-146.44;100.00;58906.56;5074179;27;45406;-61
2023/01/21 00:39:58;;;;;;;;;12.75;9.50;;;;;-146.44;100.00;58906.56;5075122;27;45530;-58
2023/01/21 00:42:24;;;;;;;;;7.00;7.00;;;;;-146.44;100.00;58906.56;5075245;27;45449;-61
2023/01/21 00:44:49;;;;;;;;;11.25;8.00;;;;;-146.44;100.00;58906.56;5075091;27;45528;-58
2023/01/21 00:47:14;;;;;;;;;7.00;7.00;;;;;-146.44;100.00;58906.56;5075308;27;45453;-61
2023/01/21 00:49:40;;;;;;;;;7.25;6.00;;;;;-146.44;100.00;58906.56;5075301;27;45928;-58
2023/01/21 00:52:05;;;;;;;;;8.25;7.25;;;;;-146.44;100.00;58906.56;5074967;27;45454;-58
2023/01/21 00:54:31;;;;;;;;;9.00;6.25;;;;;-146.44;100.00;58906.56;5075106;27;47135;-60
2023/01/21 00:56:57;;;;;;;;;11.75;6.75;;;;;-146.44;100.00;58906.56;5074909;27;45436;-61
2023/01/21 00:59:22;;;;;;;;;7.00;5.75;;;;;-146.44;100.00;58906.56;5075070;28;45919;-61
2023/01/21 01:01:48;;;;;;;;;8.50;8.50;;;;;-146.44;100.00;58906.56;5074951;27;45598;-61
2023/01/21 01:04:13;;;;;;;;;7.00;5.50;;;;;-146.44;100.00;58906.56;5074339;27;45579;-58
2023/01/21 01:06:39;;;;;;;;;7.25;6.00;;;;;-146.44;100.00;58906.56;5075035;27;45501;-58
2023/01/21 01:09:04;;;;;;;;;7.00;7.00;;;;;-146.44;100.00;58906.56;5070147;27;45469;-58
2023/01/21 01:11:30;;;;;;;;;7.50;7.50;;;;;-146.44;100.00;58906.56;5072779;27;45507;-58
2023/01/21 01:13:57;;;;;;;;;8.00;8.00;;;;;-146.44;100.00;58906.56;5074582;27;45841;-60
2023/01/21 01:16:23;;;;;;;;;8.00;8.00;;;;;-146.44;100.00;58906.56;5074633;27;45512;-61
2023/01/21 01:18:51;;;;;;;;;7.75;7.00;;;;;-146.44;100.00;58906.56;5074714;27;45497;-58
2023/01/21 01:21:18;;;;;;;;;8.00;6.50;;;;;-146.44;100.00;58906.56;5074500;27;45473;-60
2023/01/21 01:23:44;;;;;;;;;8.00;8.00;;;;;-146.44;100.00;58906.56;5074539;27;46128;-59
2023/01/21 01:26:13;;;;;;;;;9.00;7.50;;;;;-146.44;100.00;58906.56;5074399;27;45500;-59
2023/01/21 01:28:39;;;;;;;;;6.75;6.75;;;;;-146.44;100.00;58906.56;5074525;27;45496;-60
2023/01/21 01:31:06;;;;;;;;;8.25;8.25;;;;;-146.44;100.00;58906.56;5074171;27;45587;-58
2023/01/21 01:33:32;;;;;;;;;8.25;8.25;;;;;-146.44;100.00;58906.56;5074525;27;45436;-60
2023/01/21 01:36:03;;;;;;;;;15.00;9.00;;;;;-146.44;100.00;58906.56;5074198;27;45480;-59
2023/01/21 01:38:28;;;;;;;;;12.00;12.00;;;;;-146.44;100.00;58906.56;5073063;27;45640;-61
2023/01/21 01:40:54;;;;;;;;;9.25;9.25;;;;;-146.44;100.00;58906.56;5074343;27;45569;-58
2023/01/21 01:43:48;;;;;;;;;12.75;10.75;;;;;-146.44;100.00;58906.56;5073991;27;46492;-59
2023/01/21 01:46:14;;;;;;;;;10.00;10.00;;;;;-146.44;100.00;58906.56;5073579;27;45429;-61
2023/01/21 01:48:43;;;;;;;;;12.25;12.25;;;;;-146.44;100.00;58906.56;5074316;27;45525;-60
2023/01/21 01:51:09;;;;;;;;;12.25;12.25;;;;;-146.44;100.00;58906.56;5074285;27;45669;-57
2023/01/21 01:53:39;;;;;;;;;12.00;11.75;;;;;-146.44;100.00;58906.56;5073741;27;45551;-59
2023/01/21 01:56:04;;;;;;;;;11.00;11.00;;;;;-146.44;100.00;58906.56;5074432;27;45532;-59
2023/01/21 01:58:31;;;;;;;;;17.25;15.25;;;;;-146.44;100.00;58906.56;5061942;27;45469;-60
2023/01/21 02:00:58;;;;;;;;;18.00;14.25;;;;;-146.44;100.00;58906.56;5072045;28;45664;-60
2023/01/21 02:03:43;;;;;;;;;12.00;8.75;;;;;-146.44;100.00;58906.56;5073770;27;45545;-60
2023/01/21 02:06:09;;;;;;;;;20.25;14.00;;;;;-146.44;100.00;58906.56;5073257;27;45486;-61
2023/01/21 02:08:35;;;;;;;;;18.00;15.50;;;;;-146.44;100.00;58906.56;5072989;27;46245;-58
2023/01/21 02:11:01;;;;;;;;;7.50;6.75;;;;;-146.44;100.00;58906.56;5073706;27;45607;-59
2023/01/21 02:13:29;;;;;;;;;11.25;10.50;;;;;-146.44;100.00;58906.56;5073756;27;45918;-59
2023/01/21 02:16:16;;;;;;;;;11.50;10.75;;;;;-146.44;100.00;58906.56;5072858;27;45499;-61
2023/01/21 02:18:51;;;;;;;;;13.00;12.00;;;;;-146.44;100.00;58906.56;5073765;28;45523;-59
2023/01/21 02:21:40;;;;;;;;;10.00;10.00;;;;;-146.44;100.00;58906.56;5070519;27;45501;-59
2023/01/21 02:24:14;;;;;;;;;16.00;13.25;;;;;-146.44;100.00;58906.56;5073394;27;45491;-60
2023/01/21 02:26:45;;;;;;;;;16.25;14.50;;;;;-146.44;100.00;58906.56;5063460;27;45419;-58
2023/01/21 02:29:51;;;;;;;;;20.00;16.25;;;;;-146.44;100.00;58906.56;5065271;27;45482;-59
2023/01/21 02:32:42;;;;;;;;;14.00;12.25;;;;;-146.44;100.00;58906.56;5065787;27;46688;-59
2023/01/21 02:35:22;;;;;;;;;14.50;14.00;;;;;-146.44;100.00;58906.56;5070663;27;45548;-60
2023/01/21 02:38:11;;;;;;;;;15.00;14.00;;;;;-146.44;100.00;58906.56;5070648;27;45509;-61
2023/01/21 02:40:45;;;;;;;;;11.75;11.75;;;;;-146.44;100.00;58906.56;5064909;27;45420;-58
2023/01/21 02:43:24;;;;;;;;;15.25;13.00;;;;;-146.44;100.00;58906.56;5065449;28;45501;-58
2023/01/21 02:46:11;;;;;;;;;11.25;11.25;;;;;-146.44;100.00;58906.56;5071879;27;45528;-57
2023/01/21 02:48:49;;;;;;;;;11.25;11.25;;;;;-146.44;100.00;58906.56;5061501;28;45433;-59
2023/01/21 02:51:17;;;;;;;;;12.75;11.50;;;;;-146.44;100.00;58906.56;5072442;27;45503;-60
2023/01/21 02:53:43;;;;;;;;;14.25;14.25;;;;;-146.44;100.00;58906.56;5065181;27;45539;-58
2023/01/21 02:56:12;;;;;;;;;14.00;14.00;;;;;-146.44;100.00;58906.56;5066217;28;48228;-59
2023/01/21 02:58:47;;;;;;;;;16.25;12.00;;;;;-146.44;100.00;58906.56;5071368;27;45536;-60
2023/01/21 03:01:22;;;;;;;;;15.50;13.50;;;;;-146.44;100.00;58906.56;5059154;27;45456;-58
2023/01/21 03:04:22;;;;;;;;;17.00;14.75;;;;;-146.44;100.00;58906.56;5069654;27;45510;-60
2023/01/21 03:06:48;;;;;;;;;18.00;14.50;;;;;-146.44;100.00;58906.56;5034551;27;46934;-58
2023/01/21 03:09:27;;;;;;;;;20.00;17.50;;;;;-146.44;100.00;58906.56;5069806;27;45605;-59
2023/01/21 03:12:08;;;;;;;;;15.50;14.00;;;;;-146.44;100.00;58906.56;5069430;27;45781;-59
2023/01/21 03:17:48;;;;;;;;;15.00;15.00;;;;;-146.44;100.00;58906.56;5072657;27;45638;-60
2023/01/21 03:20:26;;;;;;;;;15.50;15.50;;;;;-146.44;100.00;58906.56;5069728;28;45537;-60
2023/01/21 03:22:58;;;;;;;;;18.75;17.25;;;;;-146.44;100.00;58906.56;5072151;27;45601;-59
2023/01/21 03:25:26;;;;;;;;;22.25;18.00;;;;;-146.44;100.00;58906.56;5057968;28;45633;-59
2023/01/21 03:27:53;;;;;;;;;20.75;18.00;;;;;-146.44;100.00;58906.56;5070635;27;45571;-58
2023/01/21 03:30:22;;;;;;;;;25.50;19.25;;;;;-146.44;100.00;58906.56;5076182;27;45504;-58
2023/01/21 03:32:50;;;;;;;;;14.75;13.50;;;;;-146.44;100.00;58906.56;5075620;27;45665;-60
2023/01/21 03:35:39;;;;;;;;;17.75;17.75;;;;;-146.44;100.00;58906.56;5070008;27;45587;-57
2023/01/21 03:38:16;;;;;;;;;12.75;12.75;;;;;-146.44;100.00;58906.56;5075199;27;45507;-58
2023/01/21 03:41:08;;;;;;;;;16.75;14.75;;;;;-146.44;100.00;58906.56;5075128;27;45639;-58
2023/01/21 03:43:34;;;;;;;;;16.25;16.00;;;;;-146.44;100.00;58906.56;5070454;27;45512;-58
2023/01/21 03:46:12;;;;;;;;;17.00;13.50;;;;;-146.44;100.00;58906.56;5071115;27;45469;-60
2023/01/21 03:48:50;;;;;;;;;18.25;18.25;;;;;-146.44;100.00;58906.56;5066078;27;45595;-58
2023/01/21 03:51:21;;;;;;;;;20.25;18.75;;;;;-146.44;100.00;58906.56;5074856;27;45663;-59
2023/01/21 03:53:59;;;;;;;;;17.50;16.75;;;;;-146.44;100.00;58906.56;5069761;27;45558;-59
2023/01/21 03:56:25;;;;;;;;;19.75;16.25;;;;;-146.44;100.00;58906.56;5073799;27;45553;-58
2023/01/21 03:58:51;;;;;;;;;14.75;12.75;;;;;-146.44;100.00;58906.56;5074969;27;46130;-57
2023/01/21 04:01:17;;;;;;;;;21.75;21.75;;;;;-146.44;100.00;58906.56;5075954;27;45425;-60
2023/01/21 04:03:42;;;;;;;;;19.75;19.75;;;;;-146.44;100.00;58906.56;5075638;27;45500;-60
2023/01/21 04:06:16;;;;;;;;;21.75;19.50;;;;;-146.44;100.00;58906.56;5075707;27;45546;-60
2023/01/21 04:08:42;;;;;;;;;24.25;20.25;;;;;-146.44;100.00;58906.56;5075967;27;45646;-58
2023/01/21 04:11:07;;;;;;;;;21.00;21.00;;;;;-146.44;100.00;58906.56;5075465;27;45402;-58
2023/01/21 04:13:33;;;;;;;;;25.25;21.00;;;;;-146.44;100.00;58906.56;5075888;27;45516;-57
2023/01/21 04:15:58;;;;;;;;;21.50;21.50;;;;;-146.44;100.00;58906.56;5076676;27;45496;-58
2023/01/21 04:18:23;;;;;;;;;22.00;21.00;;;;;-146.44;100.00;58906.56;5075367;27;46116;-60
2023/01/21 04:20:50;;;;;;;;;26.50;21.00;;;;;-146.44;100.00;58906.56;5075444;27;46891;-59
2023/01/21 04:23:15;;;;;;;;;21.00;20.00;;;;;-146.44;100.00;58906.56;5075506;27;45585;-59
2023/01/21 04:25:41;;;;;;;;;22.25;20.25;;;;;-146.44;100.00;58906.56;5075423;27;45529;-59
2023/01/21 04:28:06;;;;;;;;;27.75;27.00;;;;;-146.44;100.00;58906.56;5074497;27;45584;-61
2023/01/21 04:30:31;;;;;;;;;26.75;23.50;;;;;-146.44;100.00;58906.56;5075229;27;45476;-57
2023/01/21 04:32:57;;;;;;;;;25.75;20.25;;;;;-146.44;100.00;58906.56;5075624;28;45505;-58
2023/01/21 04:35:22;;;;;;;;;23.25;21.50;;;;;-146.44;100.00;58906.56;5075352;27;45534;-60
2023/01/21 04:37:47;;;;;;;;;27.50;22.25;;;;;-146.44;100.00;58906.56;5074746;27;45536;-60
2023/01/21 04:40:13;;;;;;;;;27.75;26.25;;;;;-146.44;100.00;58906.56;5074879;27;45485;-58
2023/01/21 04:42:40;;;;;;;;;23.00;18.25;;;;;-146.44;100.00;58906.56;5075386;27;45541;-59
2023/01/21 04:45:06;;;;;;;;;24.50;22.50;;;;;-146.44;100.00;58906.56;5075302;27;45506;-58
2023/01/21 04:47:32;;;;;;;;;22.25;21.25;;;;;-146.44;100.00;58906.56;5073146;27;45542;-59
2023/01/21 04:49:57;;;;;;;;;25.00;21.50;;;;;-146.44;100.00;58906.56;5075186;27;45508;-60
2023/01/21 04:52:22;;;;;;;;;27.25;25.00;;;;;-146.44;100.00;58906.56;5075008;28;45431;-59
2023/01/21 04:54:48;;;;;;;;;27.00;24.50;;;;;-146.44;100.00;58906.56;5073436;27;45627;-60
2023/01/21 04:57:13;;;;;;;;;24.75;24.00;;;;;-146.44;100.00;58906.56;5072638;27;46212;-60
2023/01/21 04:59:38;;;;;;;;;22.00;22.00;;;;;-146.44;100.00;58906.56;5067428;28;45645;-59
2023/01/21 05:02:04;;;;;;;;;24.75;21.50;;;;;-146.44;100.00;58906.56;5063456;27;45411;-61
2023/01/21 05:04:31;;;;;;;;;25.50;23.00;;;;;-146.44;100.00;58906.56;5071418;27;45647;-60
2023/01/21 05:06:57;;;;;;;;;31.00;25.50;;;;;-146.44;100.00;58906.56;5074658;27;45587;-61
2023/01/21 05:09:22;;;;;;;;;15.75;15.75;;;;;-146.44;100.00;58906.56;5073667;27;45450;-60
2023/01/21 05:11:47;;;;;;;;;29.50;24.00;;;;;-146.44;100.00;58906.56;5073868;28;45559;-57
2023/01/21 05:14:13;;;;;;;;;27.75;25.50;;;;;-146.44;100.00;58906.56;5074833;27;45509;-57
2023/01/21 05:16:38;;;;;;;;;21.75;20.75;;;;;-146.44;100.00;58906.56;5074591;27;48641;-60
2023/01/21 05:19:03;;;;;;;;;23.00;20.25;;;;;-146.44;100.00;58906.56;5074689;27;45539;-58
2023/01/21 05:21:29;;;;;;;;;30.25;23.25;;;;;-146.44;100.00;58906.56;5074546;27;45598;-58
2023/01/21 05:23:54;;;;;;;;;23.00;20.50;;;;;-146.44;100.00;58906.56;5074868;27;45485;-60
2023/01/21 05:26:19;;;;;;;;;19.50;19.50;;;;;-146.44;100.00;58906.56;5074637;27;45957;-59
2023/01/21 05:28:45;;;;;;;;;25.50;20.00;;;;;-146.44;100.00;58906.56;5073264;27;45510;-57
2023/01/21 05:31:10;;;;;;;;;20.50;20.50;;;;;-146.44;100.00;58906.56;5074809;27;45496;-57
2023/01/21 05:33:35;;;;;;;;;23.00;16.00;;;;;-146.44;100.00;58906.56;5074411;27;45613;-58
2023/01/21 05:36:02;;;;;;;;;29.75;26.00;;;;;-146.44;100.00;58906.56;5060028;27;45444;-60
2023/01/21 05:38:28;;;;;;;;;27.00;23.00;;;;;-146.44;100.00;58906.56;5074353;27;45635;-59
2023/01/21 05:41:01;;;;;;;;;25.50;25.00;;;;;-146.44;100.00;58906.56;5074488;27;45603;-60
2023/01/21 05:43:27;;;;;;;;;24.25;20.75;;;;;-146.44;100.00;58906.56;5074638;27;45461;-61
2023/01/21 05:45:53;;;;;;;;;23.50;21.75;;;;;-146.44;100.00;58906.56;5074190;28;45515;-58
2023/01/21 05:48:19;;;;;;;;;27.00;23.50;;;;;-146.44;100.00;58906.56;5074540;27;45467;-60
2023/01/21 05:50:44;;;;;;;;;21.50;21.25;;;;;-146.44;100.00;58906.56;5073089;27;45488;-58
2023/01/21 05:53:09;;;;;;;;;26.00;24.25;;;;;-146.44;100.00;58906.56;5074442;27;46100;-57
2023/01/21 05:55:38;;;;;;;;;27.25;24.75;;;;;-146.44;100.00;58906.56;5074053;27;46772;-59
2023/01/21 05:58:04;;;;;;;;;26.75;24.50;;;;;-146.44;100.00;58906.56;5073179;27;45527;-60
2023/01/21 06:00:29;;;;;;;;;26.00;25.75;;;;;-146.44;100.00;58906.56;5074362;27;45519;-58
2023/01/21 06:02:55;;;;;;;;;24.50;23.75;;;;;-146.44;100.00;58906.56;5074035;28;45540;-61
2023/01/21 06:05:20;;;;;;;;;30.50;25.50;;;;;-146.44;100.00;58906.56;5073722;27;45458;-61
2023/01/21 06:07:45;;;;;;;;;29.00;23.50;;;;;-146.44;100.00;58906.56;5074032;27;45444;-60
2023/01/21 06:10:11;;;;;;;;;22.75;22.75;;;;;-146.44;100.00;58906.56;5074254;27;45596;-58
2023/01/21 06:12:36;;;;;;;;;30.25;28.50;;;;;-146.44;100.00;58906.56;5059353;27;45407;-60
2023/01/21 06:15:01;;;;;;;;;26.75;25.50;;;;;-146.44;100.00;58906.56;5059369;27;45411;-59
2023/01/21 06:17:27;;;;;;;;;33.25;27.50;;;;;-146.44;100.00;58906.56;5065088;27;45582;-59
2023/01/21 06:19:52;;;;;;;;;30.50;28.25;;;;;-146.44;100.00;58906.56;5072539;27;45496;-61
2023/01/21 06:22:17;;;;;;;;;32.50;31.00;;;;;-146.44;100.00;58906.56;5061683;28;45434;-60
2023/01/21 06:24:44;;;;;;;;;31.25;28.00;;;;;-146.44;100.00;58906.56;5073367;27;46154;-62
2023/01/21 06:27:09;;;;;;;;;27.25;23.25;;;;;-146.44;100.00;58906.56;5072824;27;45770;-61
2023/01/21 06:29:35;;;;;;;;;29.50;28.00;;;;;-146.44;100.00;58906.56;5073882;27;45473;-62
2023/01/21 06:32:00;;;;;;;;;31.00;29.25;;;;;-146.44;100.00;58906.56;5073811;27;45603;-61
2023/01/21 06:34:25;;;;;;;;;35.25;29.25;;;;;-146.44;100.00;58906.56;5073328;27;49867;-60
2023/01/21 06:36:51;;;;;;;;;40.00;34.75;;;;;-146.44;100.00;58906.56;5073370;27;45574;-60
2023/01/21 06:39:16;;;;;;;;;29.00;29.00;;;;;-146.44;100.00;58906.56;5073617;27;45460;-59
2023/01/21 06:41:41;;;;;;;;;36.25;33.50;;;;;-146.44;100.00;58906.56;5073056;27;45634;-60
2023/01/21 06:44:07;;;;;;;;;32.25;30.25;;;;;-146.44;100.00;58906.56;5073476;27;46289;-60
2023/01/21 06:46:32;;;;;;;;;38.50;35.00;;;;;-146.44;100.00;58906.56;5073692;28;45551;-62
2023/01/21 06:48:57;;;;;;;;;37.00;33.75;;;;;-146.44;100.00;58906.56;5073825;27;45557;-59
2023/01/21 06:51:23;;;;;;;;;33.50;29.75;;;;;-146.44;100.00;58906.56;5073308;27;45464;-60
2023/01/21 06:53:48;;;;;;;;;33.50;28.50;;;;;-146.44;100.00;58906.56;5073158;27;46288;-61
2023/01/21 06:56:13;;;;;;;;;35.00;32.00;;;;;-146.44;100.00;58906.56;5073177;27;45532;-59
2023/01/21 06:58:39;;;;;;;;;38.75;34.00;;;;;-146.44;100.00;58906.56;5063180;27;45509;-61
2023/01/21 07:01:04;;;;;;;;;34.75;31.25;;;;;-146.44;100.00;58906.56;5068375;27;45915;-62
2023/01/21 07:03:29;;;;;;;;;33.75;30.75;;;;;-146.44;100.00;58906.56;5071552;28;47248;-62
2023/01/21 07:05:55;;;;;;;;;31.75;30.00;;;;;-146.44;100.00;58906.56;5073005;27;45370;-60
2023/01/21 07:08:20;;;;;;;;;40.00;34.75;;;;;-146.44;100.00;58906.56;5073066;27;45403;-60
2023/01/21 07:10:46;;;;;;;;;36.25;33.25;;;;;-146.44;100.00;58906.56;5073185;27;45551;-61
2023/01/21 07:13:11;;;;;;;;;34.00;33.50;;;;;-146.44;100.00;58906.56;5072829;27;46050;-62
2023/01/21 07:15:36;;;;;;;;;34.50;32.25;;;;;-146.44;100.00;58906.56;5072980;27;45421;-61
2023/01/21 07:18:02;;;;;;;;;29.50;27.50;;;;;-146.44;100.00;58906.56;5073270;27;45407;-61
2023/01/21 07:20:27;;;;;;;;;38.50;35.00;;;;;-146.44;100.00;58906.56;5086039;27;45593;-61
2023/01/21 07:22:52;;;;;;;;;37.50;31.25;;;;;-146.44;100.00;58906.56;5072975;27;45473;-59
2023/01/21 07:25:18;;;;;;;;;34.75;32.25;;;;;-146.44;100.00;58906.56;5072747;27;45555;-61
2023/01/21 07:27:43;;;;;;;;;41.75;39.25;;;;;-146.44;100.00;58906.56;5072124;27;45430;-61
2023/01/21 07:30:15;;;;;;;;;42.50;37.50;;;;;-146.44;100.00;58906.56;5071034;27;45677;-60
2023/01/21 07:32:40;;;;;;;;;39.75;33.50;;;;;-146.44;100.00;58906.56;5062476;28;46673;-61
2023/01/21 07:35:06;;;;;;;;;36.25;34.75;;;;;-146.44;100.00;58906.56;5065205;28;47389;-61
2023/01/21 07:37:31;;;;;;;;;43.50;38.75;;;;;-146.44;100.00;58906.56;5072953;27;45462;-60
2023/01/21 07:39:56;;;;;;;;;42.50;38.50;;;;;-146.44;100.00;58906.56;5073109;27;45662;-58
2023/01/21 07:42:22;;;;;;;;;41.25;37.00;;;;;-146.44;100.00;58906.56;5072956;27;46130;-57
2023/01/21 07:44:47;;;;;;;;;44.00;38.50;;;;;-146.44;100.00;58906.56;5072887;27;45457;-61
2023/01/21 07:47:12;;;;;;;;;46.00;38.25;;;;;-146.44;100.00;58906.56;5073371;27;45534;-59
2023/01/21 07:49:39;;;;;;;;;43.75;38.50;;;;;-146.44;100.00;58906.56;5073037;27;45422;-58
2023/01/21 07:52:05;;;;;;;;;46.50;38.00;;;;;-146.44;100.00;58906.56;5073138;27;45507;-58
2023/01/21 07:54:30;;;;;;;;;37.75;35.25;;;;;-146.44;100.00;58906.56;5072977;27;45528;-60
2023/01/21 07:56:55;;;;;;;;;41.25;37.00;;;;;-146.44;100.00;58906.56;5071452;27;45400;-58
2023/01/21 07:59:21;;;;;;;;;43.00;40.50;;;;;-146.44;100.00;58906.56;5072639;27;46163;-60
2023/01/21 08:01:46;;;;;;;;;48.00;40.25;;;;;-146.44;100.00;58906.56;5072686;27;45455;-62
2023/01/21 08:04:11;;;;;;;;;38.75;37.25;;;;;-146.44;100.00;58906.56;5072491;27;50965;-62
2023/01/21 08:06:39;;;;;;;;;44.00;39.25;;;;;-146.44;100.00;58906.56;5072932;27;46099;-61
2023/01/21 08:09:05;;;;;;;;;36.75;33.25;;;;;-146.44;100.00;58906.56;5071897;27;45474;-59
2023/01/21 08:11:30;;;;;;;;;37.50;35.00;;;;;-146.44;100.00;58906.56;5072446;27;45449;-61
2023/01/21 08:13:56;;;;;;;;;48.50;42.75;;;;;-146.44;100.00;58906.56;5070560;28;45374;-57
2023/01/21 08:16:21;;;;;;;;;42.50;40.00;;;;;-146.44;100.00;58906.56;5074366;27;45591;-61
2023/01/21 08:18:46;;;;;;;;;54.00;43.25;;;;;-146.44;100.00;58906.56;5075711;27;45571;-58
2023/01/21 08:21:11;;;;;;;;;44.00;39.75;;;;;-146.44;100.00;58906.56;5075387;27;52978;-59
2023/01/21 08:23:37;;;;;;;;;48.50;41.75;;;;;-146.44;100.00;58906.56;5075980;27;45596;-58
2023/01/21 08:26:04;;;;;;;;;39.50;39.00;;;;;-146.44;100.00;58906.56;5058025;28;45609;-61
2023/01/21 08:28:29;;;;;;;;;51.00;42.50;;;;;-146.44;100.00;58906.56;5071865;27;45619;-58
2023/01/21 08:31:02;;;;;;;;;42.25;38.50;;;;;-146.44;100.00;58906.56;5075540;27;46088;-59
2023/01/21 08:33:27;;;;;;;;;48.50;39.75;;;;;-146.44;100.00;58906.56;5075680;27;45497;-61
2023/01/21 08:35:58;;;;;;;;;52.50;42.00;;;;;-146.44;100.00;58906.56;5063504;27;51087;-58
2023/01/21 08:38:23;;;;;;;;;48.25;40.25;;;;;-146.44;100.00;58906.56;5076167;27;45441;-59
2023/01/21 08:40:48;;;;;;;;;51.75;44.50;;;;;-146.44;100.00;58906.56;5075540;27;45408;-58
2023/01/21 08:43:14;;;;;;;;;52.75;40.00;;;;;-146.44;100.00;58906.56;5075310;27;45483;-59
2023/01/21 08:45:40;;;;;;;;;46.00;39.25;;;;;-146.44;100.00;58906.56;5072789;27;45453;-61
2023/01/21 08:48:05;;;;;;;;;50.75;42.00;;;;;-146.44;100.00;58906.56;5075656;27;45505;-61
2023/01/21 08:50:31;;;;;;;;;49.50;42.25;;;;;-146.44;100.00;58906.56;5075132;27;46107;-59
2023/01/21 08:52:56;;;;;;;;;49.25;42.50;;;;;-146.44;100.00;58906.56;5075509;27;45433;-59
2023/01/21 08:55:25;;;;;;;;;48.00;42.75;;;;;-146.44;100.00;58906.56;5067551;27;45520;-59
2023/01/21 08:57:55;;;;;;;;;46.25;39.75;;;;;-146.44;100.00;58906.56;5064162;27;45537;-60
2023/01/21 09:00:22;;;;;;;;;44.50;41.00;;;;;-146.44;100.00;58906.56;5075773;27;46070;-61
2023/01/21 09:02:47;;;;;;;;;44.25;37.75;;;;;-146.44;100.00;58906.56;5071851;27;45574;-58
2023/01/21 09:05:12;;;;;;;;;51.25;42.50;;;;;-146.44;100.00;58906.56;5075112;27;46093;-61
2023/01/21 09:07:39;;;;;;;;;44.75;40.75;;;;;-146.44;100.00;58906.56;5073891;27;45537;-61
2023/01/21 09:10:05;;;;;;;;;48.75;43.00;;;;;-146.44;100.00;58906.56;5073837;27;45522;-59
2023/01/21 09:12:31;;;;;;;;;50.75;43.75;;;;;-146.44;100.00;58906.56;5074325;27;45524;-61
2023/01/21 09:14:57;;;;;;;;;52.75;42.50;;;;;-146.44;100.00;58906.56;5073035;27;45448;-60
2023/01/21 09:17:22;;;;;;;;;50.00;42.75;;;;;-146.44;100.00;58906.56;5074597;27;45504;-60
2023/01/21 09:19:48;;;;;;;;;56.00;47.25;;;;;-146.44;100.00;58906.56;5073984;27;45502;-58
2023/01/21 09:22:14;;;;;;;;;50.00;42.25;;;;;-146.44;100.00;58906.56;5072191;27;45504;-59
2023/01/21 09:24:40;;;;;;;;;51.75;42.50;;;;;-146.44;100.00;58906.56;5072366;27;45571;-58
2023/01/21 09:27:06;;;;;;;;;53.25;45.50;;;;;-146.44;100.00;58906.56;5071011;27;45550;-61
2023/01/21 09:29:32;;;;;;;;;46.75;39.50;;;;;-146.44;100.00;58906.56;5074301;27;46287;-61
2023/01/21 09:31:57;;;;;;;;;55.50;44.00;;;;;-146.44;100.00;58906.56;5073340;27;45522;-51
2023/01/21 09:34:22;;;;;;;;;45.25;41.75;;;;;-146.44;100.00;58906.56;5068825;27;45356;-52
2023/01/21 09:36:48;;;;;;;;;55.00;44.00;;;;;-146.44;100.00;58906.56;5058792;27;45442;-52
2023/01/21 09:39:13;;;;;;;;;54.25;44.25;;;;;-146.44;100.00;58906.56;5071522;27;45512;-48
2023/01/21 09:41:40;;;;;;;;;57.50;43.00;;;;;-146.44;100.00;58906.56;5071683;27;45484;-52
2023/01/21 09:44:28;;;;;;;;;54.50;44.25;;;;;-146.44;100.00;58906.56;5066751;27;47139;-51
2023/01/21 09:46:56;;;;;;;;;50.25;42.50;;;;;-146.44;100.00;58906.56;5063516;27;45540;-59
2023/01/21 09:49:33;;;;;;;;;52.75;42.50;;;;;-146.44;100.00;58906.56;5069237;27;45524;-60
2023/01/21 09:52:01;;;;;;;;;56.50;45.00;;;;;-146.44;100.00;58906.56;5071870;27;45560;-61
2023/01/21 09:54:30;;;;;;;;;50.75;44.75;;;;;-146.44;100.00;58906.56;5072132;27;45704;-62
2023/01/21 09:57:14;;;;;;;;;47.00;39.00;;;;;-146.44;100.00;58906.56;5063926;28;45513;-60
2023/01/21 10:00:16;;;;;;;;;57.75;43.75;;;;;-146.44;100.00;58906.56;5072943;27;45596;-63
2023/01/21 10:02:47;;;;;;;;;50.75;44.25;;;;;-146.44;100.00;58906.56;5073818;27;45423;-61
2023/01/21 10:05:12;;;;;;;;;45.50;40.75;;;;;-146.44;100.00;58906.56;5057341;27;45529;-50
2023/01/21 10:07:52;;;;;;;;;51.75;42.00;;;;;-146.44;100.00;58906.56;5070270;27;45624;-54
2023/01/21 10:10:26;;;;;;;;;55.25;44.75;;;;;-146.44;100.00;58906.56;5061817;27;45498;-52
2023/01/21 10:13:07;;;;;;;;;47.75;41.75;;;;;-146.44;100.00;58906.56;5073733;27;45622;-51
2023/01/21 10:15:44;;;;;;;;;50.75;40.75;;;;;-146.44;100.00;58906.56;5061358;27;45562;-52
2023/01/21 10:18:17;;;;;;;;;57.75;43.75;;;;;-146.44;100.00;58906.56;5070389;27;45427;-50
2023/01/21 10:21:27;;;;;;;;;44.75;41.25;;;;;-146.44;100.00;58906.56;5073534;27;46307;-51
2023/01/21 10:23:59;;;;;;;;;47.00;42.25;;;;;-146.44;100.00;58906.56;5067705;27;45660;-51
2023/01/21 10:26:28;;;;;;;;;53.50;41.50;;;;;-146.44;100.00;58906.56;5073810;27;45584;-50
2023/01/21 10:28:54;;;;;;;;;54.00;44.75;;;;;-146.44;100.00;58906.56;5073916;27;45458;-53
2023/01/21 10:31:24;;;;;;;;;46.25;40.50;;;;;-146.44;100.00;58906.56;5071248;27;46028;-53
2023/01/21 10:33:51;;;;;;;;;52.25;40.50;;;;;-146.44;100.00;58906.56;5065932;27;46251;-53
2023/01/21 10:36:39;;;;;;;;;40.50;38.50;;;;;-146.44;100.00;58906.56;5067535;27;45641;-50
2023/01/21 10:39:28;;;;;;;;;42.00;34.25;;;;;-146.44;100.00;58906.56;5072154;27;46145;-50
2023/01/21 10:42:35;;;;;;;;;50.25;43.75;;;;;-146.44;100.00;58906.56;5067119;28;45522;-53
2023/01/21 10:45:35;;;;;;;;;47.00;41.50;;;;;-146.44;100.00;58906.56;5050129;28;45926;-52
2023/01/21 10:48:18;;;;;;;;;42.50;40.00;;;;;-146.44;100.00;58906.56;5073463;27;45512;-51
2023/01/21 10:50:57;;;;;;;;;47.00;40.50;;;;;-146.44;100.00;58906.56;5072965;27;45497;-49
2023/01/21 10:53:37;;;;;;;;;47.00;41.00;;;;;-146.44;100.00;58906.56;5073232;27;46334;-51
2023/01/21 10:56:16;;;;;;;;;42.75;38.75;;;;;-146.44;100.00;58906.56;5071334;27;45513;-52
2023/01/21 10:58:44;;;;;;;;;53.50;44.00;;;;;-146.44;100.00;58906.56;5073467;27;45514;-51
2023/01/21 11:01:41;;;;;;;;;47.50;38.75;;;;;-146.44;100.00;58906.56;5072919;27;45671;-51
2023/01/21 11:04:15;;;;;;;;;41.00;36.00;;;;;-146.44;100.00;58906.56;5071685;27;45506;-54
2023/01/21 11:06:44;;;;;;;;;36.75;34.00;;;;;-146.44;100.00;58906.56;5072930;27;45480;-50
2023/01/21 11:09:12;;;;;;;;;41.75;37.50;;;;;-146.44;100.00;58906.56;5073209;28;45504;-50